sensor_id;sensor_type;location;lat;lon;timestamp;P1;durP1;ratioP1;P2;durP2;ratioP2
21878;SDS011;27908;42.708;23.278;2023-12-29T00:01:14;46.37;;;20.53;;
21878;SDS011;27908;42.708;23.278;2023-12-29T00:03:39;50.80;;;18.45;;
21878;SDS011;27908;42.708;23.278;2023-12-29T00:06:05;49.63;;;20.43;;
21878;SDS011;27908;42.708;23.278;2023-12-29T00:08:31;46.00;;;21.38;;
21878;SDS011;27908;42.708;23.278;2023-12-29T00:10:56;45.00;;;21.58;;
21878;SDS011;27908;42.708;23.278;2023-12-29T00:13:22;49.60;;;20.67;;
21878;SDS011;27908;42.708;23.278;2023-12-29T00:15:52;44.33;;;19.45;;
21878;SDS011;27908;42.708;23.278;2023-12-29T00:18:18;49.17;;;20.42;;
21878;SDS011;27908;42.708;23.278;2023-12-29T00:20:44;43.08;;;20.75;;
21878;SDS011;27908;42.708;23.278;2023-12-29T00:23:09;44.42;;;21.25;;
21878;SDS011;27908;42.708;23.278;2023-12-29T00:25:38;41.15;;;20.42;;
21878;SDS011;27908;42.708;23.278;2023-12-29T00:28:04;45.33;;;21.58;;
21878;SDS011;27908;42.708;23.278;2023-12-29T00:30:30;47.77;;;21.83;;
21878;SDS011;27908;42.708;23.278;2023-12-29T00:32:56;46.35;;;21.75;;
21878;SDS011;27908;42.708;23.278;2023-12-29T00:35:21;42.83;;;20.80;;
21878;SDS011;27908;42.708;23.278;2023-12-29T00:37:47;50.60;;;21.48;;
21878;SDS011;27908;42.708;23.278;2023-12-29T00:40:15;40.35;;;19.50;;
21878;SDS011;27908;42.708;23.278;2023-12-29T00:42:40;41.97;;;21.10;;
21878;SDS011;27908;42.708;23.278;2023-12-29T00:45:06;49.20;;;23.10;;
21878;SDS011;27908;42.708;23.278;2023-12-29T00:47:32;52.03;;;23.83;;
21878;SDS011;27908;42.708;23.278;2023-12-29T00:49:57;50.17;;;21.83;;
21878;SDS011;27908;42.708;23.278;2023-12-29T00:52:23;44.28;;;22.73;;
21878;SDS011;27908;42.708;23.278;2023-12-29T00:54:48;41.33;;;20.33;;
21878;SDS011;27908;42.708;23.278;2023-12-29T00:57:14;50.07;;;23.03;;
21878;SDS011;27908;42.708;23.278;2023-12-29T00:59:40;46.13;;;22.03;;
21878;SDS011;27908;42.708;23.278;2023-12-29T01:02:06;50.47;;;23.38;;
21878;SDS011;27908;42.708;23.278;2023-12-29T01:04:31;52.92;;;22.50;;
21878;SDS011;27908;42.708;23.278;2023-12-29T01:06:57;54.00;;;25.52;;
21878;SDS011;27908;42.708;23.278;2023-12-29T01:09:22;48.13;;;23.47;;
21878;SDS011;27908;42.708;23.278;2023-12-29T01:11:48;56.33;;;23.47;;
21878;SDS011;27908;42.708;23.278;2023-12-29T01:14:13;49.58;;;23.52;;
21878;SDS011;27908;42.708;23.278;2023-12-29T01:16:39;52.53;;;23.53;;
21878;SDS011;27908;42.708;23.278;2023-12-29T01:19:06;38.00;;;20.60;;
21878;SDS011;27908;42.708;23.278;2023-12-29T01:21:32;44.40;;;19.10;;
21878;SDS011;27908;42.708;23.278;2023-12-29T01:24:01;49.72;;;22.08;;
21878;SDS011;27908;42.708;23.278;2023-12-29T01:26:29;51.45;;;20.27;;
21878;SDS011;27908;42.708;23.278;2023-12-29T01:28:55;44.17;;;19.53;;
21878;SDS011;27908;42.708;23.278;2023-12-29T01:31:20;51.67;;;21.95;;
21878;SDS011;27908;42.708;23.278;2023-12-29T01:33:46;42.63;;;20.30;;
21878;SDS011;27908;42.708;23.278;2023-12-29T01:36:20;42.53;;;19.57;;
21878;SDS011;27908;42.708;23.278;2023-12-29T01:38:46;39.80;;;17.65;;
21878;SDS011;27908;42.708;23.278;2023-12-29T01:41:11;37.20;;;18.90;;
21878;SDS011;27908;42.708;23.278;2023-12-29T01:44:02;41.10;;;17.13;;
21878;SDS011;27908;42.708;23.278;2023-12-29T01:46:25;36.85;;;18.15;;
21878;SDS011;27908;42.708;23.278;2023-12-29T01:48:53;35.92;;;16.38;;
21878;SDS011;27908;42.708;23.278;2023-12-29T01:51:20;28.58;;;14.88;;
21878;SDS011;27908;42.708;23.278;2023-12-29T01:53:49;34.50;;;16.35;;
21878;SDS011;27908;42.708;23.278;2023-12-29T01:56:15;33.50;;;14.68;;
21878;SDS011;27908;42.708;23.278;2023-12-29T01:58:42;47.17;;;17.85;;
21878;SDS011;27908;42.708;23.278;2023-12-29T02:01:09;37.22;;;17.58;;
21878;SDS011;27908;42.708;23.278;2023-12-29T02:03:35;39.67;;;17.10;;
21878;SDS011;27908;42.708;23.278;2023-12-29T02:06:01;37.22;;;17.00;;
21878;SDS011;27908;42.708;23.278;2023-12-29T02:08:27;32.22;;;15.38;;
21878;SDS011;27908;42.708;23.278;2023-12-29T02:10:53;36.97;;;16.85;;
21878;SDS011;27908;42.708;23.278;2023-12-29T02:13:19;31.17;;;15.87;;
21878;SDS011;27908;42.708;23.278;2023-12-29T02:15:46;34.90;;;17.75;;
21878;SDS011;27908;42.708;23.278;2023-12-29T02:18:13;38.35;;;18.15;;
21878;SDS011;27908;42.708;23.278;2023-12-29T02:20:41;40.30;;;17.63;;
21878;SDS011;27908;42.708;23.278;2023-12-29T02:23:07;35.33;;;17.40;;
21878;SDS011;27908;42.708;23.278;2023-12-29T02:25:33;43.50;;;18.38;;
21878;SDS011;27908;42.708;23.278;2023-12-29T02:28:03;36.90;;;17.17;;
21878;SDS011;27908;42.708;23.278;2023-12-29T02:33:40;38.83;;;16.63;;
21878;SDS011;27908;42.708;23.278;2023-12-29T02:36:08;34.10;;;16.17;;
21878;SDS011;27908;42.708;23.278;2023-12-29T02:38:35;37.08;;;15.48;;
21878;SDS011;27908;42.708;23.278;2023-12-29T02:41:01;35.95;;;15.35;;
21878;SDS011;27908;42.708;23.278;2023-12-29T02:43:27;39.90;;;18.03;;
21878;SDS011;27908;42.708;23.278;2023-12-29T02:45:52;34.63;;;16.20;;
21878;SDS011;27908;42.708;23.278;2023-12-29T02:48:18;37.30;;;16.13;;
21878;SDS011;27908;42.708;23.278;2023-12-29T02:50:43;37.07;;;17.57;;
21878;SDS011;27908;42.708;23.278;2023-12-29T02:53:09;37.80;;;17.60;;
21878;SDS011;27908;42.708;23.278;2023-12-29T02:55:34;37.90;;;15.90;;
21878;SDS011;27908;42.708;23.278;2023-12-29T02:58:00;49.20;;;22.33;;
21878;SDS011;27908;42.708;23.278;2023-12-29T03:00:25;50.17;;;20.67;;
21878;SDS011;27908;42.708;23.278;2023-12-29T03:02:51;55.30;;;24.02;;
21878;SDS011;27908;42.708;23.278;2023-12-29T03:05:16;52.65;;;25.42;;
21878;SDS011;27908;42.708;23.278;2023-12-29T03:07:42;66.93;;;27.73;;
21878;SDS011;27908;42.708;23.278;2023-12-29T03:10:07;51.03;;;24.77;;
21878;SDS011;27908;42.708;23.278;2023-12-29T03:12:33;49.33;;;20.30;;
21878;SDS011;27908;42.708;23.278;2023-12-29T03:14:58;49.73;;;24.57;;
21878;SDS011;27908;42.708;23.278;2023-12-29T03:17:24;53.10;;;24.58;;
21878;SDS011;27908;42.708;23.278;2023-12-29T03:19:50;50.53;;;25.13;;
21878;SDS011;27908;42.708;23.278;2023-12-29T03:22:15;49.27;;;22.87;;
21878;SDS011;27908;42.708;23.278;2023-12-29T03:24:41;52.58;;;22.88;;
21878;SDS011;27908;42.708;23.278;2023-12-29T03:27:09;59.13;;;26.88;;
21878;SDS011;27908;42.708;23.278;2023-12-29T03:29:35;64.88;;;28.13;;
21878;SDS011;27908;42.708;23.278;2023-12-29T03:32:01;55.45;;;25.55;;
21878;SDS011;27908;42.708;23.278;2023-12-29T03:34:27;51.08;;;24.60;;
21878;SDS011;27908;42.708;23.278;2023-12-29T03:36:52;50.57;;;24.23;;
21878;SDS011;27908;42.708;23.278;2023-12-29T03:39:18;59.07;;;26.83;;
21878;SDS011;27908;42.708;23.278;2023-12-29T03:41:43;59.37;;;27.33;;
21878;SDS011;27908;42.708;23.278;2023-12-29T03:44:09;65.75;;;27.42;;
21878;SDS011;27908;42.708;23.278;2023-12-29T03:46:35;60.57;;;27.83;;
21878;SDS011;27908;42.708;23.278;2023-12-29T03:49:01;64.88;;;27.63;;
21878;SDS011;27908;42.708;23.278;2023-12-29T03:51:26;60.50;;;27.93;;
21878;SDS011;27908;42.708;23.278;2023-12-29T03:53:52;66.50;;;27.33;;
21878;SDS011;27908;42.708;23.278;2023-12-29T03:56:17;56.80;;;27.13;;
21878;SDS011;27908;42.708;23.278;2023-12-29T03:58:44;66.97;;;28.48;;
21878;SDS011;27908;42.708;23.278;2023-12-29T04:01:13;48.97;;;20.83;;
21878;SDS011;27908;42.708;23.278;2023-12-29T04:03:40;43.22;;;20.55;;
21878;SDS011;27908;42.708;23.278;2023-12-29T04:06:06;44.25;;;20.90;;
21878;SDS011;27908;42.708;23.278;2023-12-29T04:08:35;48.28;;;20.90;;
21878;SDS011;27908;42.708;23.278;2023-12-29T04:11:02;53.53;;;21.92;;
21878;SDS011;27908;42.708;23.278;2023-12-29T04:13:28;43.33;;;20.10;;
21878;SDS011;27908;42.708;23.278;2023-12-29T04:15:54;44.83;;;21.90;;
21878;SDS011;27908;42.708;23.278;2023-12-29T04:18:20;50.27;;;23.07;;
21878;SDS011;27908;42.708;23.278;2023-12-29T04:20:47;42.67;;;21.52;;
21878;SDS011;27908;42.708;23.278;2023-12-29T04:23:13;45.08;;;19.77;;
21878;SDS011;27908;42.708;23.278;2023-12-29T04:25:38;44.75;;;22.67;;
21878;SDS011;27908;42.708;23.278;2023-12-29T04:28:04;48.35;;;20.48;;
21878;SDS011;27908;42.708;23.278;2023-12-29T04:30:31;45.83;;;20.33;;
21878;SDS011;27908;42.708;23.278;2023-12-29T04:32:56;44.37;;;19.87;;
21878;SDS011;27908;42.708;23.278;2023-12-29T04:35:22;45.50;;;19.90;;
21878;SDS011;27908;42.708;23.278;2023-12-29T04:37:47;44.37;;;21.50;;
21878;SDS011;27908;42.708;23.278;2023-12-29T04:40:14;45.15;;;18.70;;
21878;SDS011;27908;42.708;23.278;2023-12-29T04:42:40;44.75;;;20.58;;
21878;SDS011;27908;42.708;23.278;2023-12-29T04:45:05;36.33;;;17.77;;
21878;SDS011;27908;42.708;23.278;2023-12-29T04:47:32;44.97;;;20.73;;
21878;SDS011;27908;42.708;23.278;2023-12-29T04:49:57;44.20;;;21.17;;
21878;SDS011;27908;42.708;23.278;2023-12-29T04:52:23;40.30;;;20.48;;
21878;SDS011;27908;42.708;23.278;2023-12-29T04:54:48;42.50;;;19.27;;
21878;SDS011;27908;42.708;23.278;2023-12-29T04:57:14;48.00;;;22.50;;
21878;SDS011;27908;42.708;23.278;2023-12-29T04:59:39;41.10;;;20.92;;
21878;SDS011;27908;42.708;23.278;2023-12-29T05:02:05;44.07;;;21.63;;
21878;SDS011;27908;42.708;23.278;2023-12-29T05:04:31;49.47;;;22.55;;
21878;SDS011;27908;42.708;23.278;2023-12-29T05:06:56;44.93;;;21.47;;
21878;SDS011;27908;42.708;23.278;2023-12-29T05:09:22;53.87;;;22.27;;
21878;SDS011;27908;42.708;23.278;2023-12-29T05:11:47;46.72;;;21.30;;
21878;SDS011;27908;42.708;23.278;2023-12-29T05:14:13;46.57;;;23.57;;
21878;SDS011;27908;42.708;23.278;2023-12-29T05:16:39;54.35;;;25.33;;
21878;SDS011;27908;42.708;23.278;2023-12-29T05:19:06;57.15;;;26.33;;
21878;SDS011;27908;42.708;23.278;2023-12-29T05:21:31;58.92;;;26.15;;
21878;SDS011;27908;42.708;23.278;2023-12-29T05:23:57;48.17;;;22.93;;
21878;SDS011;27908;42.708;23.278;2023-12-29T05:26:22;51.33;;;23.63;;
21878;SDS011;27908;42.708;23.278;2023-12-29T05:28:48;56.80;;;23.63;;
21878;SDS011;27908;42.708;23.278;2023-12-29T05:31:13;53.90;;;25.07;;
21878;SDS011;27908;42.708;23.278;2023-12-29T05:33:39;49.20;;;22.03;;
21878;SDS011;27908;42.708;23.278;2023-12-29T05:36:08;69.30;;;30.55;;
21878;SDS011;27908;42.708;23.278;2023-12-29T05:38:35;61.90;;;32.17;;
21878;SDS011;27908;42.708;23.278;2023-12-29T05:41:04;71.90;;;33.92;;
21878;SDS011;27908;42.708;23.278;2023-12-29T05:43:32;65.88;;;32.28;;
21878;SDS011;27908;42.708;23.278;2023-12-29T05:46:00;66.60;;;30.23;;
21878;SDS011;27908;42.708;23.278;2023-12-29T05:48:26;71.80;;;32.88;;
21878;SDS011;27908;42.708;23.278;2023-12-29T05:50:51;59.17;;;28.80;;
21878;SDS011;27908;42.708;23.278;2023-12-29T05:53:17;62.13;;;29.93;;
21878;SDS011;27908;42.708;23.278;2023-12-29T05:55:43;60.20;;;27.88;;
21878;SDS011;27908;42.708;23.278;2023-12-29T05:58:09;58.83;;;27.63;;
21878;SDS011;27908;42.708;23.278;2023-12-29T06:00:36;58.22;;;26.77;;
21878;SDS011;27908;42.708;23.278;2023-12-29T06:03:02;57.58;;;28.63;;
21878;SDS011;27908;42.708;23.278;2023-12-29T06:05:29;58.60;;;28.00;;
21878;SDS011;27908;42.708;23.278;2023-12-29T06:07:54;61.92;;;29.30;;
21878;SDS011;27908;42.708;23.278;2023-12-29T06:10:20;61.10;;;29.80;;
21878;SDS011;27908;42.708;23.278;2023-12-29T06:12:45;59.30;;;27.80;;
21878;SDS011;27908;42.708;23.278;2023-12-29T06:15:12;72.10;;;32.07;;
21878;SDS011;27908;42.708;23.278;2023-12-29T06:17:38;63.88;;;29.48;;
21878;SDS011;27908;42.708;23.278;2023-12-29T06:20:05;60.17;;;26.92;;
21878;SDS011;27908;42.708;23.278;2023-12-29T06:22:32;59.72;;;31.38;;
21878;SDS011;27908;42.708;23.278;2023-12-29T06:24:58;46.13;;;23.63;;
21878;SDS011;27908;42.708;23.278;2023-12-29T06:27:24;62.10;;;28.93;;
21878;SDS011;27908;42.708;23.278;2023-12-29T06:29:50;54.70;;;27.02;;
21878;SDS011;27908;42.708;23.278;2023-12-29T06:32:16;58.87;;;26.90;;
21878;SDS011;27908;42.708;23.278;2023-12-29T06:34:41;57.75;;;29.38;;
21878;SDS011;27908;42.708;23.278;2023-12-29T06:37:07;62.47;;;31.63;;
21878;SDS011;27908;42.708;23.278;2023-12-29T06:39:32;58.50;;;29.40;;
21878;SDS011;27908;42.708;23.278;2023-12-29T06:41:57;53.10;;;29.80;;
21878;SDS011;27908;42.708;23.278;2023-12-29T06:44:23;50.53;;;26.45;;
21878;SDS011;27908;42.708;23.278;2023-12-29T06:46:48;57.20;;;25.10;;
21878;SDS011;27908;42.708;23.278;2023-12-29T06:49:14;52.90;;;26.00;;
21878;SDS011;27908;42.708;23.278;2023-12-29T06:51:39;58.10;;;25.77;;
21878;SDS011;27908;42.708;23.278;2023-12-29T06:54:06;55.33;;;27.77;;
21878;SDS011;27908;42.708;23.278;2023-12-29T06:56:32;58.38;;;27.70;;
21878;SDS011;27908;42.708;23.278;2023-12-29T06:58:57;47.93;;;25.50;;
21878;SDS011;27908;42.708;23.278;2023-12-29T07:01:23;55.83;;;25.50;;
21878;SDS011;27908;42.708;23.278;2023-12-29T07:03:49;44.67;;;24.25;;
21878;SDS011;27908;42.708;23.278;2023-12-29T07:06:15;46.47;;;22.55;;
21878;SDS011;27908;42.708;23.278;2023-12-29T07:08:40;53.88;;;26.05;;
21878;SDS011;27908;42.708;23.278;2023-12-29T07:11:09;50.60;;;23.58;;
21878;SDS011;27908;42.708;23.278;2023-12-29T07:13:36;60.17;;;25.75;;
21878;SDS011;27908;42.708;23.278;2023-12-29T07:16:01;52.80;;;22.60;;
21878;SDS011;27908;42.708;23.278;2023-12-29T07:18:27;54.63;;;25.35;;
21878;SDS011;27908;42.708;23.278;2023-12-29T07:20:53;48.77;;;24.17;;
21878;SDS011;27908;42.708;23.278;2023-12-29T07:23:18;50.30;;;24.20;;
21878;SDS011;27908;42.708;23.278;2023-12-29T07:25:44;51.70;;;25.13;;
21878;SDS011;27908;42.708;23.278;2023-12-29T07:28:10;54.13;;;23.97;;
21878;SDS011;27908;42.708;23.278;2023-12-29T07:30:36;59.22;;;27.98;;
21878;SDS011;27908;42.708;23.278;2023-12-29T07:33:02;57.75;;;28.45;;
21878;SDS011;27908;42.708;23.278;2023-12-29T07:35:28;68.93;;;32.83;;
21878;SDS011;27908;42.708;23.278;2023-12-29T07:37:53;72.93;;;34.45;;
21878;SDS011;27908;42.708;23.278;2023-12-29T07:40:19;58.27;;;27.60;;
21878;SDS011;27908;42.708;23.278;2023-12-29T07:42:45;50.07;;;25.40;;
21878;SDS011;27908;42.708;23.278;2023-12-29T07:45:11;71.75;;;33.05;;
21878;SDS011;27908;42.708;23.278;2023-12-29T07:47:37;53.30;;;29.73;;
21878;SDS011;27908;42.708;23.278;2023-12-29T07:50:02;96.15;;;42.63;;
21878;SDS011;27908;42.708;23.278;2023-12-29T07:52:30;75.25;;;35.67;;
21878;SDS011;27908;42.708;23.278;2023-12-29T07:54:55;82.87;;;37.70;;
21878;SDS011;27908;42.708;23.278;2023-12-29T07:57:21;89.28;;;38.72;;
21878;SDS011;27908;42.708;23.278;2023-12-29T07:59:46;81.20;;;36.40;;
21878;SDS011;27908;42.708;23.278;2023-12-29T08:02:12;47.13;;;26.80;;
21878;SDS011;27908;42.708;23.278;2023-12-29T08:04:37;60.72;;;27.85;;
21878;SDS011;27908;42.708;23.278;2023-12-29T08:07:03;47.23;;;23.13;;
21878;SDS011;27908;42.708;23.278;2023-12-29T08:09:29;59.83;;;26.08;;
21878;SDS011;27908;42.708;23.278;2023-12-29T08:11:55;62.20;;;28.08;;
21878;SDS011;27908;42.708;23.278;2023-12-29T08:14:21;54.35;;;25.48;;
21878;SDS011;27908;42.708;23.278;2023-12-29T08:16:47;51.08;;;25.02;;
21878;SDS011;27908;42.708;23.278;2023-12-29T08:19:12;58.27;;;25.30;;
21878;SDS011;27908;42.708;23.278;2023-12-29T08:21:40;48.53;;;22.95;;
21878;SDS011;27908;42.708;23.278;2023-12-29T08:24:05;31.07;;;14.60;;
21878;SDS011;27908;42.708;23.278;2023-12-29T08:26:31;59.00;;;26.77;;
21878;SDS011;27908;42.708;23.278;2023-12-29T08:28:56;54.42;;;25.00;;
21878;SDS011;27908;42.708;23.278;2023-12-29T08:31:22;40.83;;;20.23;;
21878;SDS011;27908;42.708;23.278;2023-12-29T08:33:48;60.13;;;25.60;;
21878;SDS011;27908;42.708;23.278;2023-12-29T08:36:13;67.47;;;29.40;;
21878;SDS011;27908;42.708;23.278;2023-12-29T08:38:43;66.07;;;29.33;;
21878;SDS011;27908;42.708;23.278;2023-12-29T08:41:08;71.23;;;31.30;;
21878;SDS011;27908;42.708;23.278;2023-12-29T08:43:33;72.37;;;29.33;;
21878;SDS011;27908;42.708;23.278;2023-12-29T08:46:01;76.63;;;30.45;;
21878;SDS011;27908;42.708;23.278;2023-12-29T08:48:26;77.57;;;31.10;;
21878;SDS011;27908;42.708;23.278;2023-12-29T08:50:52;67.43;;;29.87;;
21878;SDS011;27908;42.708;23.278;2023-12-29T08:53:17;86.70;;;35.93;;
21878;SDS011;27908;42.708;23.278;2023-12-29T08:55:43;78.18;;;32.13;;
21878;SDS011;27908;42.708;23.278;2023-12-29T08:58:09;77.55;;;32.28;;
21878;SDS011;27908;42.708;23.278;2023-12-29T09:00:36;67.77;;;29.83;;
21878;SDS011;27908;42.708;23.278;2023-12-29T09:03:01;78.05;;;33.28;;
21878;SDS011;27908;42.708;23.278;2023-12-29T09:05:26;73.67;;;32.73;;
21878;SDS011;27908;42.708;23.278;2023-12-29T09:07:52;68.70;;;33.03;;
21878;SDS011;27908;42.708;23.278;2023-12-29T09:10:17;75.37;;;33.30;;
21878;SDS011;27908;42.708;23.278;2023-12-29T09:12:43;73.50;;;33.28;;
21878;SDS011;27908;42.708;23.278;2023-12-29T09:15:09;68.93;;;31.77;;
21878;SDS011;27908;42.708;23.278;2023-12-29T09:17:34;65.35;;;31.05;;
21878;SDS011;27908;42.708;23.278;2023-12-29T09:20:00;72.63;;;32.50;;
21878;SDS011;27908;42.708;23.278;2023-12-29T09:22:26;67.95;;;32.10;;
21878;SDS011;27908;42.708;23.278;2023-12-29T09:24:51;63.73;;;31.20;;
21878;SDS011;27908;42.708;23.278;2023-12-29T09:27:17;70.80;;;30.60;;
21878;SDS011;27908;42.708;23.278;2023-12-29T09:29:42;62.85;;;30.40;;
21878;SDS011;27908;42.708;23.278;2023-12-29T09:32:08;54.50;;;25.87;;
21878;SDS011;27908;42.708;23.278;2023-12-29T09:34:34;63.20;;;29.48;;
21878;SDS011;27908;42.708;23.278;2023-12-29T09:36:59;64.73;;;30.07;;
21878;SDS011;27908;42.708;23.278;2023-12-29T09:39:25;63.23;;;28.73;;
21878;SDS011;27908;42.708;23.278;2023-12-29T09:41:55;64.45;;;30.00;;
21878;SDS011;27908;42.708;23.278;2023-12-29T09:44:25;53.83;;;27.10;;
21878;SDS011;27908;42.708;23.278;2023-12-29T09:46:53;52.47;;;26.48;;
21878;SDS011;27908;42.708;23.278;2023-12-29T09:49:20;62.75;;;30.75;;
21878;SDS011;27908;42.708;23.278;2023-12-29T09:51:47;62.90;;;31.20;;
21878;SDS011;27908;42.708;23.278;2023-12-29T09:54:13;73.93;;;35.33;;
21878;SDS011;27908;42.708;23.278;2023-12-29T09:56:40;84.07;;;35.73;;
21878;SDS011;27908;42.708;23.278;2023-12-29T09:59:06;95.57;;;38.88;;
21878;SDS011;27908;42.708;23.278;2023-12-29T10:01:35;109.85;;;42.13;;
21878;SDS011;27908;42.708;23.278;2023-12-29T10:04:02;79.20;;;35.88;;
21878;SDS011;27908;42.708;23.278;2023-12-29T10:06:28;75.17;;;36.23;;
21878;SDS011;27908;42.708;23.278;2023-12-29T10:08:59;82.55;;;35.15;;
21878;SDS011;27908;42.708;23.278;2023-12-29T10:11:29;74.05;;;34.92;;
21878;SDS011;27908;42.708;23.278;2023-12-29T10:13:59;73.88;;;33.90;;
21878;SDS011;27908;42.708;23.278;2023-12-29T10:16:38;76.22;;;36.95;;
21878;SDS011;27908;42.708;23.278;2023-12-29T10:22:00;75.50;;;36.72;;
21878;SDS011;27908;42.708;23.278;2023-12-29T10:24:32;81.88;;;37.00;;
21878;SDS011;27908;42.708;23.278;2023-12-29T10:26:58;72.15;;;33.03;;
21878;SDS011;27908;42.708;23.278;2023-12-29T10:29:25;79.18;;;35.50;;
21878;SDS011;27908;42.708;23.278;2023-12-29T10:31:52;81.53;;;36.20;;
21878;SDS011;27908;42.708;23.278;2023-12-29T10:34:19;83.65;;;35.53;;
21878;SDS011;27908;42.708;23.278;2023-12-29T10:36:48;88.40;;;35.97;;
21878;SDS011;27908;42.708;23.278;2023-12-29T10:39:16;78.38;;;37.15;;
21878;SDS011;27908;42.708;23.278;2023-12-29T10:41:42;74.57;;;37.13;;
21878;SDS011;27908;42.708;23.278;2023-12-29T10:44:07;77.30;;;36.40;;
21878;SDS011;27908;42.708;23.278;2023-12-29T10:46:33;75.55;;;37.25;;
21878;SDS011;27908;42.708;23.278;2023-12-29T10:49:12;73.57;;;36.60;;
21878;SDS011;27908;42.708;23.278;2023-12-29T10:51:38;87.30;;;41.33;;
21878;SDS011;27908;42.708;23.278;2023-12-29T10:54:05;81.22;;;39.13;;
21878;SDS011;27908;42.708;23.278;2023-12-29T10:56:31;75.88;;;38.08;;
21878;SDS011;27908;42.708;23.278;2023-12-29T10:59:03;95.47;;;42.22;;
21878;SDS011;27908;42.708;23.278;2023-12-29T11:01:33;88.80;;;40.23;;
21878;SDS011;27908;42.708;23.278;2023-12-29T11:04:04;80.15;;;38.78;;
21878;SDS011;27908;42.708;23.278;2023-12-29T11:06:40;83.63;;;40.22;;
21878;SDS011;27908;42.708;23.278;2023-12-29T11:09:13;109.40;;;49.33;;
21878;SDS011;27908;42.708;23.278;2023-12-29T11:11:39;86.90;;;39.63;;
21878;SDS011;27908;42.708;23.278;2023-12-29T11:14:05;84.17;;;39.47;;
21878;SDS011;27908;42.708;23.278;2023-12-29T11:16:33;96.13;;;46.60;;
21878;SDS011;27908;42.708;23.278;2023-12-29T11:18:58;121.35;;;55.42;;
21878;SDS011;27908;42.708;23.278;2023-12-29T11:21:26;107.20;;;50.27;;
21878;SDS011;27908;42.708;23.278;2023-12-29T11:23:53;106.05;;;51.20;;
21878;SDS011;27908;42.708;23.278;2023-12-29T11:26:18;82.65;;;42.25;;
21878;SDS011;27908;42.708;23.278;2023-12-29T11:28:48;120.07;;;54.50;;
21878;SDS011;27908;42.708;23.278;2023-12-29T11:31:16;91.50;;;43.17;;
21878;SDS011;27908;42.708;23.278;2023-12-29T11:33:43;88.93;;;41.95;;
21878;SDS011;27908;42.708;23.278;2023-12-29T11:36:29;77.93;;;37.88;;
21878;SDS011;27908;42.708;23.278;2023-12-29T11:39:20;88.35;;;40.55;;
21878;SDS011;27908;42.708;23.278;2023-12-29T11:42:05;80.30;;;38.93;;
21878;SDS011;27908;42.708;23.278;2023-12-29T11:44:38;89.78;;;43.35;;
21878;SDS011;27908;42.708;23.278;2023-12-29T11:47:03;86.13;;;42.33;;
21878;SDS011;27908;42.708;23.278;2023-12-29T11:52:36;86.82;;;42.33;;
21878;SDS011;27908;42.708;23.278;2023-12-29T11:55:12;84.65;;;40.22;;
21878;SDS011;27908;42.708;23.278;2023-12-29T11:57:40;91.00;;;43.03;;
21878;SDS011;27908;42.708;23.278;2023-12-29T12:00:07;96.82;;;45.13;;
21878;SDS011;27908;42.708;23.278;2023-12-29T12:02:33;95.45;;;46.33;;
21878;SDS011;27908;42.708;23.278;2023-12-29T12:05:01;101.13;;;45.45;;
21878;SDS011;27908;42.708;23.278;2023-12-29T12:12:48;75.55;;;38.13;;
21878;SDS011;27908;42.708;23.278;2023-12-29T12:20:22;103.97;;;47.80;;
21878;SDS011;27908;42.708;23.278;2023-12-29T12:22:58;82.27;;;38.57;;
21878;SDS011;27908;42.708;23.278;2023-12-29T12:25:36;77.15;;;36.95;;
21878;SDS011;27908;42.708;23.278;2023-12-29T12:28:10;80.72;;;40.35;;
21878;SDS011;27908;42.708;23.278;2023-12-29T12:30:38;78.25;;;39.28;;
21878;SDS011;27908;42.708;23.278;2023-12-29T12:33:04;81.43;;;38.47;;
21878;SDS011;27908;42.708;23.278;2023-12-29T12:35:32;72.38;;;36.92;;
21878;SDS011;27908;42.708;23.278;2023-12-29T12:38:07;70.27;;;36.80;;
21878;SDS011;27908;42.708;23.278;2023-12-29T12:40:35;70.43;;;35.45;;
21878;SDS011;27908;42.708;23.278;2023-12-29T12:43:01;73.25;;;36.05;;
21878;SDS011;27908;42.708;23.278;2023-12-29T12:45:28;76.33;;;36.30;;
21878;SDS011;27908;42.708;23.278;2023-12-29T12:48:09;127.65;;;60.58;;
21878;SDS011;27908;42.708;23.278;2023-12-29T12:50:42;52.17;;;26.85;;
21878;SDS011;27908;42.708;23.278;2023-12-29T12:53:10;48.35;;;23.15;;
21878;SDS011;27908;42.708;23.278;2023-12-29T12:55:39;45.50;;;22.40;;
21878;SDS011;27908;42.708;23.278;2023-12-29T12:58:06;48.47;;;23.93;;
21878;SDS011;27908;42.708;23.278;2023-12-29T13:00:32;51.25;;;24.45;;
21878;SDS011;27908;42.708;23.278;2023-12-29T13:02:59;262.40;;;125.57;;
21878;SDS011;27908;42.708;23.278;2023-12-29T13:05:25;244.88;;;109.22;;
21878;SDS011;27908;42.708;23.278;2023-12-29T13:07:53;151.13;;;72.00;;
21878;SDS011;27908;42.708;23.278;2023-12-29T13:10:21;203.02;;;94.82;;
21878;SDS011;27908;42.708;23.278;2023-12-29T13:12:53;61.65;;;30.48;;
21878;SDS011;27908;42.708;23.278;2023-12-29T13:15:20;50.42;;;24.33;;
21878;SDS011;27908;42.708;23.278;2023-12-29T13:17:52;109.45;;;52.88;;
21878;SDS011;27908;42.708;23.278;2023-12-29T13:20:20;234.67;;;113.10;;
21878;SDS011;27908;42.708;23.278;2023-12-29T13:22:47;50.30;;;24.77;;
21878;SDS011;27908;42.708;23.278;2023-12-29T13:25:18;90.47;;;41.95;;
21878;SDS011;27908;42.708;23.278;2023-12-29T13:27:45;43.28;;;20.90;;
21878;SDS011;27908;42.708;23.278;2023-12-29T13:30:13;36.35;;;17.75;;
21878;SDS011;27908;42.708;23.278;2023-12-29T13:32:40;43.43;;;18.63;;
21878;SDS011;27908;42.708;23.278;2023-12-29T13:35:11;38.17;;;18.63;;
21878;SDS011;27908;42.708;23.278;2023-12-29T13:37:49;37.75;;;18.13;;
21878;SDS011;27908;42.708;23.278;2023-12-29T13:43:01;40.38;;;17.80;;
21878;SDS011;27908;42.708;23.278;2023-12-29T13:45:28;39.53;;;17.20;;
21878;SDS011;27908;42.708;23.278;2023-12-29T13:47:55;43.00;;;17.17;;
21878;SDS011;27908;42.708;23.278;2023-12-29T13:50:22;34.38;;;16.98;;
21878;SDS011;27908;42.708;23.278;2023-12-29T13:52:47;35.47;;;16.02;;
21878;SDS011;27908;42.708;23.278;2023-12-29T13:55:24;35.43;;;16.37;;
21878;SDS011;27908;42.708;23.278;2023-12-29T13:57:50;38.22;;;16.48;;
21878;SDS011;27908;42.708;23.278;2023-12-29T14:00:20;30.48;;;14.35;;
21878;SDS011;27908;42.708;23.278;2023-12-29T14:05:31;26.67;;;13.55;;
21878;SDS011;27908;42.708;23.278;2023-12-29T14:10:29;30.60;;;13.80;;
21878;SDS011;27908;42.708;23.278;2023-12-29T14:13:08;27.05;;;12.88;;
21878;SDS011;27908;42.708;23.278;2023-12-29T14:15:38;27.08;;;12.00;;
21878;SDS011;27908;42.708;23.278;2023-12-29T14:20:48;25.07;;;11.90;;
21878;SDS011;27908;42.708;23.278;2023-12-29T14:23:16;32.05;;;13.40;;
21878;SDS011;27908;42.708;23.278;2023-12-29T14:25:43;22.13;;;10.82;;
21878;SDS011;27908;42.708;23.278;2023-12-29T14:28:18;23.27;;;12.20;;
21878;SDS011;27908;42.708;23.278;2023-12-29T14:30:48;20.35;;;9.52;;
21878;SDS011;27908;42.708;23.278;2023-12-29T14:33:14;18.88;;;8.98;;
21878;SDS011;27908;42.708;23.278;2023-12-29T14:35:40;19.63;;;8.90;;
21878;SDS011;27908;42.708;23.278;2023-12-29T14:38:05;29.15;;;12.68;;